Date,TemperatureHighF,TemperatureAvgF,TemperatureLowF,DewpointHighF,DewpointAvgF,DewpointLowF,HumidityHigh,HumidityAvg,HumidityLow,PressureMaxIn,PressureMinIn,WindSpeedMaxMPH,WindSpeedAvgMPH,GustSpeedMaxMPH,PrecipitationSumIn
2013-7-1,79,66,56,62,54,43,98,66,43,29.89,29.79,4,1,11,0.00
2013-7-2,65,60,58,59,56,48,99,88,58,29.91,29.85,3,1,8,0.59
2013-7-3,78,65,57,69,62,57,99,92,65,29.91,29.82,7,1,10,0.00
2013-7-4,82,73,59,69,63,57,99,71,53,29.96,29.89,7,2,10,0.00
2013-7-5,84,71,60,67,64,60,99,80,53,29.96,29.87,6,1,9,0.00
2013-7-6,81,72,67,72,69,66,99,91,69,29.92,29.83,6,0,9,0.13
2013-7-7,86,75,67,72,70,67,99,83,59,29.87,29.81,8,2,12,0.00
2013-7-8,82,76,72,74,71,68,94,85,68,29.89,29.79,8,4,16,0.05
2013-7-9,87,76,68,76,72,67,99,88,69,29.83,29.71,11,3,20,0.00
2013-7-10,80,74,63,76,68,59,97,82,61,29.83,29.67,9,3,16,0.00
2013-7-11,79,69,59,64,60,55,99,77,50,29.94,29.83,4,1,9,0.00
2013-7-12,80,68,56,66,61,56,99,81,59,29.98,29.90,4,1,9,0.00
2013-7-13,90,73,60,70,63,57,98,72,41,30.01,29.95,4,1,7,0.00
2013-7-14,92,78,67,72,68,64,95,73,45,30.06,30.00,3,1,8,0.00
2013-7-15,90,79,72,76,74,71,97,84,60,30.12,30.06,3,0,5,0.00
2013-7-16,92,82,73,76,73,68,99,75,51,30.17,30.09,8,2,12,0.00
2013-7-17,93,83,77,76,73,68,90,73,51,30.16,30.02,6,3,11,0.00
2013-7-18,96,85,78,77,74,69,94,72,47,30.03,29.81,8,3,12,0.00
2013-7-19,93,84,79,76,75,71,87,73,52,29.82,29.61,12,7,21,0.00
2013-7-20,88,79,71,75,69,61,99,73,45,29.78,29.61,11,2,17,0.00
2013-7-21,88,75,64,72,65,59,94,72,45,29.82,29.71,6,1,9,0.00
2013-7-22,88,76,68,72,67,64,95,77,52,29.75,29.59,5,2,8,0.00
2013-7-23,78,71,62,72,64,53,87,77,61,29.78,29.53,10,4,17,0.00
2013-7-24,75,62,51,57,52,48,94,71,48,29.89,29.78,4,1,10,0.00
2013-7-25,78,64,53,61,54,43,99,73,35,29.95,29.87,6,1,8,0.00
2013-7-26,79,67,60,64,58,49,93,73,53,29.90,29.72,9,2,20,0.00
2013-7-27,71,64,60,67,58,48,99,83,65,29.73,29.67,6,3,12,0.00
2013-7-28,70,61,54,56,52,50,97,73,57,29.83,29.66,14,6,21,0.11
2013-7-29,73,64,54,60,56,53,98,76,55,30.03,29.82,8,2,13,0.00
2013-7-30,81,65,52,64,57,52,99,78,49,30.03,29.93,3,0,5,0.00
2013-7-31,72,66,64,69,65,60,99,95,78,29.93,29.78,6,1,8,0.09